Time;durP1;ratioP1;P1;durP2;ratioP2;P2;SDS_P1;SDS_P2;PMS_P1;PMS_P2;Temp;Humidity;BMP_temperature;BMP_pressure;BME280_temperature;BME280_humidity;BME280_pressure;Samples;Min_cycle;Max_cycle;Signal;HPM_P1;HPM_P2
2022/10/15 00:00:17;;;;;;;135.53;69.13;;;8.60;99.90;;;;;;10402460;28;20038;-80
2022/10/15 00:05:17;;;;;;;181.03;78.87;;;8.70;99.90;;;;;;10402282;28;20045;-78
2022/10/15 00:10:19;;;;;;;124.27;65.47;;;8.80;99.90;;;;;;10400560;28;20486;-79
2022/10/15 00:15:19;;;;;;;119.37;65.47;;;9.00;99.90;;;;;;10402300;28;20705;-80
2022/10/15 00:20:20;;;;;;;115.97;60.35;;;9.10;99.90;;;;;;10404962;28;20034;-78
2022/10/15 00:25:21;;;;;;;160.17;72.57;;;9.20;99.90;;;;;;10396803;28;20428;-78
2022/10/15 00:30:21;;;;;;;108.17;59.63;;;9.30;99.90;;;;;;10398277;28;20508;-78
2022/10/15 00:35:22;;;;;;;111.53;61.23;;;9.40;99.90;;;;;;10406383;28;20038;-78
2022/10/15 00:40:22;;;;;;;182.83;77.30;;;9.40;99.90;;;;;;10395238;28;20034;-80
2022/10/15 00:45:23;;;;;;;155.70;73.97;;;9.40;99.90;;;;;;10403152;28;20140;-79
2022/10/15 00:50:25;;;;;;;159.43;69.50;;;9.50;99.90;;;;;;10372330;28;20054;-78
2022/10/15 00:55:28;;;;;;;129.57;66.68;;;9.60;99.90;;;;;;10403050;28;20030;-79
2022/10/15 01:00:29;;;;;;;118.30;64.73;;;9.60;99.90;;;;;;10402493;28;20036;-78
2022/10/15 01:05:30;;;;;;;135.90;65.70;;;9.60;99.90;;;;;;10401286;28;20052;-78
2022/10/15 01:10:49;;;;;;;120.43;66.50;;;9.60;99.90;;;;;;10401095;28;20045;-79
2022/10/15 01:16:04;;;;;;;170.32;83.07;;;9.60;99.90;;;;;;10394426;28;20782;-81
2022/10/15 01:21:18;;;;;;;126.18;70.47;;;9.60;99.90;;;;;;10381691;28;20080;-78
2022/10/15 01:26:33;;;;;;;115.43;63.83;;;9.60;99.90;;;;;;10399176;28;20033;-78
2022/10/15 01:31:59;;;;;;;113.80;65.20;;;9.70;99.90;;;;;;10381881;28;20042;-78
2022/10/15 01:37:12;;;;;;;135.02;69.63;;;9.80;99.90;;;;;;10396426;28;20036;-78
2022/10/15 01:42:32;;;;;;;162.53;75.77;;;9.70;99.90;;;;;;10404498;28;20079;-78
2022/10/15 01:47:38;;;;;;;109.22;60.53;;;9.80;99.90;;;;;;10397245;28;20037;-78
2022/10/15 01:52:40;;;;;;;99.85;57.65;;;9.80;99.90;;;;;;10389941;28;20120;-81
2022/10/15 01:57:43;;;;;;;143.43;66.53;;;9.70;99.90;;;;;;10401229;28;20061;-80
2022/10/15 02:02:43;;;;;;;132.33;60.53;;;9.60;99.90;;;;;;10396727;28;20092;-77
2022/10/15 02:07:56;;;;;;;105.37;52.33;;;9.40;99.90;;;;;;10404476;28;20362;-81
2022/10/15 02:13:18;;;;;;;89.77;49.23;;;9.20;99.90;;;;;;10401456;28;20060;-78
2022/10/15 02:18:34;;;;;;;103.97;51.80;;;9.10;99.90;;;;;;10402345;28;20100;-80
2022/10/15 02:24:10;;;;;;;139.33;58.13;;;9.10;99.90;;;;;;10390244;28;20029;-80
2022/10/15 02:29:14;;;;;;;91.20;47.30;;;9.10;99.90;;;;;;10398626;28;20577;-80
2022/10/15 02:34:18;;;;;;;87.10;45.77;;;9.20;99.90;;;;;;10398845;28;20025;-78
2022/10/15 02:39:23;;;;;;;138.90;56.00;;;9.10;99.90;;;;;;10402611;28;20034;-78
2022/10/15 02:44:23;;;;;;;128.87;52.63;;;9.10;99.90;;;;;;10403741;28;20075;-81
2022/10/15 02:49:24;;;;;;;82.20;44.93;;;9.00;99.90;;;;;;10392419;28;20033;-80
2022/10/15 02:54:24;;;;;;;100.17;50.37;;;9.00;99.90;;;;;;10403508;28;20033;-78
2022/10/15 02:59:25;;;;;;;84.90;43.63;;;9.10;99.90;;;;;;10403433;28;20108;-78
2022/10/15 03:04:25;;;;;;;164.77;56.57;;;9.10;99.90;;;;;;10389439;28;20061;-78
2022/10/15 03:09:26;;;;;;;82.43;45.80;;;9.10;99.90;;;;;;10399698;28;20049;-79
2022/10/15 03:14:26;;;;;;;129.07;53.13;;;9.00;99.90;;;;;;10402340;28;20033;-78
2022/10/15 03:19:27;;;;;;;169.33;54.87;;;9.00;99.90;;;;;;10402705;28;20037;-78
2022/10/15 03:24:27;;;;;;;92.87;47.77;;;9.00;99.90;;;;;;10401867;28;20033;-79
2022/10/15 03:29:28;;;;;;;133.13;49.97;;;8.90;99.90;;;;;;10408398;28;20071;-78
2022/10/15 03:34:29;;;;;;;90.63;44.20;;;8.80;99.90;;;;;;10399426;28;20398;-80
2022/10/15 03:39:29;;;;;;;81.63;44.37;;;8.70;99.90;;;;;;10404214;28;20038;-81
2022/10/15 03:44:30;;;;;;;108.53;46.23;;;8.70;99.90;;;;;;10410592;28;20076;-78
2022/10/15 03:49:30;;;;;;;71.63;37.93;;;8.70;99.90;;;;;;10407662;28;20037;-78
2022/10/15 03:54:31;;;;;;;101.43;45.53;;;8.70;99.90;;;;;;10409841;28;20075;-78
2022/10/15 03:59:31;;;;;;;101.47;42.13;;;8.80;99.90;;;;;;10403537;28;20033;-78
2022/10/15 04:04:32;;;;;;;83.43;41.93;;;8.80;99.90;;;;;;10398721;28;20049;-78
2022/10/15 04:09:32;;;;;;;70.97;37.50;;;8.80;99.90;;;;;;10407531;28;20440;-78
2022/10/15 04:14:33;;;;;;;79.70;41.63;;;8.70;99.90;;;;;;10407632;28;20041;-78
2022/10/15 04:19:33;;;;;;;96.60;43.47;;;8.60;99.90;;;;;;10408186;28;20053;-81
2022/10/15 04:24:34;;;;;;;78.37;38.47;;;8.60;99.90;;;;;;10408799;28;20041;-78
2022/10/15 04:29:34;;;;;;;73.53;37.60;;;8.60;99.90;;;;;;10407184;28;20041;-78
2022/10/15 04:34:35;;;;;;;72.80;39.33;;;8.60;99.90;;;;;;10405612;28;20389;-80
2022/10/15 04:39:36;;;;;;;76.80;38.80;;;8.50;99.90;;;;;;10405569;28;20040;-78
2022/10/15 04:44:36;;;;;;;75.70;39.33;;;8.50;99.90;;;;;;10396382;28;20037;-78
2022/10/15 04:49:37;;;;;;;70.87;38.30;;;8.60;99.90;;;;;;10402211;28;20045;-79
2022/10/15 04:54:37;;;;;;;80.90;41.17;;;8.60;99.90;;;;;;10394697;28;20037;-78
2022/10/15 04:59:38;;;;;;;78.60;39.87;;;8.60;99.90;;;;;;10405895;28;20434;-78
2022/10/15 05:04:38;;;;;;;92.63;50.13;;;8.60;99.90;;;;;;10399198;28;20144;-77
2022/10/15 05:09:39;;;;;;;75.57;40.40;;;8.70;99.90;;;;;;10396218;28;20046;-78
2022/10/15 05:14:40;;;;;;;78.33;40.27;;;8.70;99.90;;;;;;10393371;28;20493;-78
2022/10/15 05:19:41;;;;;;;75.10;40.33;;;8.70;99.90;;;;;;10387849;28;20037;-82
2022/10/15 05:24:41;;;;;;;101.20;59.40;;;8.70;99.90;;;;;;10400711;28;20041;-77
2022/10/15 05:29:42;;;;;;;80.93;42.10;;;8.70;99.90;;;;;;10402503;28;20053;-80
2022/10/15 05:34:42;;;;;;;96.13;50.20;;;8.80;99.90;;;;;;10396988;28;20482;-79
2022/10/15 05:39:43;;;;;;;90.93;46.90;;;8.90;99.90;;;;;;10398891;28;20030;-77
2022/10/15 05:44:43;;;;;;;70.77;39.10;;;9.00;99.90;;;;;;10401278;28;20718;-78
2022/10/15 05:49:44;;;;;;;81.63;43.57;;;9.10;99.90;;;;;;10397264;28;20037;-79
2022/10/15 05:54:45;;;;;;;83.63;43.53;;;9.30;99.90;;;;;;10391223;28;20033;-80
2022/10/15 05:59:45;;;;;;;73.80;39.55;;;9.50;99.90;;;;;;10405039;28;20175;-78
2022/10/15 06:04:47;;;;;;;78.93;41.05;;;9.80;99.90;;;;;;10397114;28;20548;-81
2022/10/15 06:09:47;;;;;;;110.10;59.72;;;10.00;99.90;;;;;;10404428;28;20037;-79
2022/10/15 06:14:48;;;;;;;254.57;145.48;;;10.20;99.90;;;;;;10399760;28;20415;-78
2022/10/15 06:19:48;;;;;;;208.43;146.75;;;10.40;99.90;;;;;;10401874;28;20041;-80
2022/10/15 06:24:49;;;;;;;96.90;64.78;;;10.60;99.90;;;;;;10405104;28;20038;-79
2022/10/15 06:29:50;;;;;;;95.82;57.72;;;10.80;99.90;;;;;;10402877;28;20060;-80
2022/10/15 06:34:50;;;;;;;79.50;50.70;;;10.90;99.90;;;;;;10397180;28;20039;-78
2022/10/15 06:39:51;;;;;;;64.22;41.45;;;11.10;99.90;;;;;;10404069;28;20033;-78
2022/10/15 06:44:51;;;;;;;60.78;36.20;;;11.20;99.90;;;;;;10395379;28;20036;-79
2022/10/15 06:49:52;;;;;;;61.53;33.70;;;11.40;99.90;;;;;;10401225;28;20042;-81
2022/10/15 06:54:52;;;;;;;63.13;37.75;;;11.60;99.90;;;;;;10404069;28;20035;-79
2022/10/15 06:59:53;;;;;;;58.97;33.75;;;11.70;99.90;;;;;;10394236;28;20739;-79
2022/10/15 07:04:54;;;;;;;55.13;32.72;;;11.90;99.90;;;;;;10399067;28;20125;-79
2022/10/15 07:09:54;;;;;;;54.72;35.13;;;12.00;99.90;;;;;;10405912;28;20036;-79
2022/10/15 07:14:55;;;;;;;56.88;33.00;;;12.20;99.90;;;;;;10405332;28;20028;-79
2022/10/15 07:19:56;;;;;;;64.95;37.03;;;12.40;99.90;;;;;;10392731;28;20030;-79
2022/10/15 07:24:56;;;;;;;97.15;64.55;;;12.60;99.90;;;;;;10403797;28;20439;-79
2022/10/15 07:29:57;;;;;;;52.17;34.05;;;12.90;99.90;;;;;;10387577;28;20049;-79
2022/10/15 07:34:57;;;;;;;51.83;30.88;;;13.10;99.90;;;;;;10402267;28;20033;-79
2022/10/15 07:39:58;;;;;;;63.28;41.33;;;13.30;99.90;;;;;;10402685;28;20657;-79
2022/10/15 07:44:58;;;;;;;51.90;32.28;;;13.40;99.90;;;;;;10392079;28;20033;-82
2022/10/15 07:49:59;;;;;;;53.22;32.53;;;13.60;99.90;;;;;;10400448;28;20255;-80
2022/10/15 07:55:00;;;;;;;44.00;28.95;;;13.60;99.90;;;;;;10404139;28;20037;-80
2022/10/15 08:00:00;;;;;;;45.17;27.85;;;13.80;99.90;;;;;;10400763;28;20037;-78
2022/10/15 08:05:01;;;;;;;51.10;30.08;;;13.90;99.90;;;;;;10398282;28;98876;-80
2022/10/15 08:10:01;;;;;;;44.47;27.67;;;14.10;99.90;;;;;;10408505;28;20037;-80
2022/10/15 08:15:02;;;;;;;42.88;27.08;;;14.20;99.90;;;;;;10408650;28;20366;-82
2022/10/15 08:20:03;;;;;;;43.90;26.30;;;14.30;99.90;;;;;;10404612;28;20385;-82
2022/10/15 08:25:04;;;;;;;36.67;25.17;;;14.40;99.90;;;;;;10394127;28;20112;-80
2022/10/15 08:30:05;;;;;;;40.67;25.02;;;14.40;99.90;;;;;;10403865;28;20045;-80
2022/10/15 08:35:06;;;;;;;38.90;23.85;;;14.50;99.90;;;;;;10397938;28;20547;-83
2022/10/15 08:40:08;;;;;;;38.13;24.58;;;14.60;99.90;;;;;;10405326;28;20032;-82
2022/10/15 08:45:18;;;;;;;41.20;25.30;;;14.80;99.90;;;;;;10407196;28;20046;-82
2022/10/15 08:50:39;;;;;;;37.25;23.48;;;14.90;99.90;;;;;;10401305;28;20045;-80
2022/10/15 08:55:42;;;;;;;36.88;23.90;;;15.10;99.90;;;;;;10401408;28;20037;-79
2022/10/15 09:00:49;;;;;;;42.17;23.70;;;15.20;99.90;;;;;;10403491;28;20056;-80
2022/10/15 09:06:11;;;;;;;34.78;21.55;;;15.30;99.90;;;;;;10404633;28;20057;-80
2022/10/15 09:11:31;;;;;;;34.22;22.17;;;15.40;99.90;;;;;;10406172;28;20048;-83
2022/10/15 09:16:36;;;;;;;34.20;21.73;;;15.40;99.90;;;;;;10395615;28;20095;-82
2022/10/15 09:21:37;;;;;;;30.23;19.23;;;15.50;99.90;;;;;;10405744;28;20103;-80
2022/10/15 09:26:59;;;;;;;29.92;18.00;;;15.60;99.90;;;;;;10405362;28;20032;-82
2022/10/15 09:32:12;;;;;;;25.45;17.40;;;15.90;99.90;;;;;;10401668;28;20030;-78
2022/10/15 09:37:31;;;;;;;23.67;15.38;;;16.20;99.90;;;;;;10393032;28;20033;-82
2022/10/15 09:42:36;;;;;;;24.27;14.75;;;16.50;99.90;;;;;;10403553;28;20386;-79
2022/10/15 09:47:40;;;;;;;20.17;12.88;;;16.80;99.90;;;;;;10393081;28;20030;-81
2022/10/15 09:52:43;;;;;;;17.92;12.38;;;16.90;99.90;;;;;;10391987;28;20052;-79
2022/10/15 09:57:47;;;;;;;18.42;12.52;;;16.80;99.90;;;;;;10396750;28;20211;-80
2022/10/15 10:03:05;;;;;;;16.27;11.15;;;17.00;99.90;;;;;;10390122;28;20108;-79
2022/10/15 10:08:17;;;;;;;21.60;11.77;;;17.00;99.90;;;;;;10390721;28;20452;-79
2022/10/15 10:13:31;;;;;;;16.33;11.20;;;16.90;99.90;;;;;;10382281;28;20389;-78
2022/10/15 10:18:32;;;;;;;18.15;11.60;;;16.80;99.90;;;;;;10391183;28;20131;-79
2022/10/15 10:23:41;;;;;;;15.77;10.85;;;16.80;99.90;;;;;;10400651;28;20091;-82
2022/10/15 10:28:55;;;;;;;50.00;28.83;;;16.70;99.90;;;;;;10398334;28;20038;-78
2022/10/15 10:33:59;;;;;;;70.55;63.65;;;16.70;99.90;;;;;;10382855;28;20083;-78
2022/10/15 10:39:13;;;;;;;28.08;19.73;;;16.70;99.90;;;;;;10399312;28;20033;-78
2022/10/15 10:44:39;;;;;;;16.23;10.32;;;16.70;99.90;;;;;;10404334;28;20033;-79
2022/10/15 10:49:43;;;;;;;25.60;19.15;;;16.70;99.90;;;;;;10400836;28;20144;-78
2022/10/15 10:54:45;;;;;;;37.65;19.77;;;16.70;99.40;;;;;;10402776;28;20080;-77
2022/10/15 10:59:55;;;;;;;17.85;9.40;;;16.50;98.40;;;;;;10405932;28;20041;-79
2022/10/15 11:04:55;;;;;;;50.03;22.70;;;16.40;96.90;;;;;;10410047;28;20703;-78
2022/10/15 11:10:15;;;;;;;15.77;10.20;;;16.40;97.20;;;;;;10408863;28;20047;-78
2022/10/15 11:15:53;;;;;;;26.23;15.10;;;16.30;97.80;;;;;;10399946;28;20497;-78
2022/10/15 11:21:13;;;;;;;16.17;10.68;;;16.30;96.70;;;;;;10406230;28;20063;-80
2022/10/15 11:26:44;;;;;;;18.88;11.20;;;16.40;97.00;;;;;;10401183;28;20420;-78
2022/10/15 11:32:08;;;;;;;21.67;12.15;;;16.50;96.90;;;;;;10405551;28;20048;-78
2022/10/15 11:37:24;;;;;;;13.57;9.70;;;16.60;97.20;;;;;;10399714;28;20078;-78
2022/10/15 11:42:45;;;;;;;;;;;16.80;97.00;;;;;;10406907;28;20029;-78
2022/10/15 11:48:08;;;;;;;16.27;10.85;;;16.80;95.70;;;;;;10395451;28;19909;-77
2022/10/15 11:53:43;;;;;;;14.10;8.43;;;16.70;94.90;;;;;;10386090;28;20068;-79
2022/10/15 11:59:02;;;;;;;13.05;8.35;;;16.60;93.80;;;;;;10408725;28;20459;-79
2022/10/15 12:04:11;;;;;;;14.90;8.68;;;16.50;94.10;;;;;;10396996;28;20501;-79
2022/10/15 12:09:18;;;;;;;12.88;8.50;;;16.40;94.80;;;;;;10396351;28;20041;-80
2022/10/15 12:14:40;;;;;;;17.05;9.60;;;16.50;95.20;;;;;;10396708;28;20034;-78
2022/10/15 12:19:55;;;;;;;12.80;8.23;;;16.70;94.70;;;;;;10386527;28;20045;-77
2022/10/15 12:24:56;;;;;;;16.80;10.20;;;16.80;93.40;;;;;;10400947;28;20057;-78
2022/10/15 12:30:02;;;;;;;16.35;9.00;;;16.90;93.90;;;;;;10402026;28;20837;-78
2022/10/15 12:35:22;;;;;;;28.05;20.30;;;16.90;93.30;;;;;;10394289;28;20089;-78
2022/10/15 12:40:28;;;;;;;45.25;40.33;;;16.90;93.60;;;;;;10393932;28;20026;-78
2022/10/15 12:45:40;;;;;;;80.03;38.13;;;16.90;93.60;;;;;;10400957;28;20097;-77
2022/10/15 12:50:41;;;;;;;27.38;18.05;;;16.80;93.90;;;;;;10384172;28;20060;-80
2022/10/15 12:55:41;;;;;;;27.38;16.38;;;16.70;95.10;;;;;;10406795;28;20033;-78
2022/10/15 13:00:42;;;;;;;14.88;9.52;;;16.60;95.80;;;;;;10397492;28;20033;-78
2022/10/15 13:05:43;;;;;;;17.25;11.15;;;16.60;96.10;;;;;;10404902;28;20161;-77
2022/10/15 13:10:52;;;;;;;13.68;9.07;;;16.50;95.60;;;;;;10402728;28;20044;-77
2022/10/15 13:15:58;;;;;;;11.95;7.78;;;16.40;96.30;;;;;;10405558;28;20118;-81
2022/10/15 13:21:00;;;;;;;12.95;8.85;;;16.40;96.00;;;;;;10405341;28;20029;-77
2022/10/15 13:26:25;;;;;;;12.38;7.85;;;16.40;95.80;;;;;;10393875;28;20029;-80
2022/10/15 13:31:35;;;;;;;13.98;8.43;;;16.20;95.20;;;;;;10396828;28;20037;-79
2022/10/15 13:36:37;;;;;;;12.55;8.32;;;16.20;95.90;;;;;;10398809;28;20046;-80
2022/10/15 13:41:41;;;;;;;12.00;8.13;;;16.10;95.70;;;;;;10402546;28;20040;-78
2022/10/15 13:46:41;;;;;;;15.07;8.85;;;16.00;95.20;;;;;;10402239;28;20061;-83
2022/10/15 13:51:48;;;;;;;15.30;8.82;;;16.00;95.40;;;;;;10403771;28;20144;-80
2022/10/15 13:56:56;;;;;;;14.85;8.65;;;16.00;95.20;;;;;;10399613;28;20544;-80
2022/10/15 14:02:03;;;;;;;13.95;7.40;;;16.10;94.90;;;;;;10395946;28;20029;-83
2022/10/15 14:07:21;;;;;;;10.13;6.78;;;16.10;94.60;;;;;;10400341;28;20478;-79
2022/10/15 14:12:22;;;;;;;12.77;7.93;;;16.10;94.10;;;;;;10394263;28;20695;-82
2022/10/15 14:17:25;;;;;;;13.18;7.72;;;16.00;94.30;;;;;;10403439;28;20026;-80
2022/10/15 14:22:27;;;;;;;12.10;7.93;;;15.90;94.60;;;;;;10402048;28;20053;-81
2022/10/15 14:27:28;;;;;;;14.02;7.63;;;15.90;95.00;;;;;;10398484;28;20021;-79
2022/10/15 14:32:45;;;;;;;11.88;7.57;;;15.90;94.90;;;;;;10398229;28;20050;-79
2022/10/15 14:37:45;;;;;;;12.88;7.88;;;15.90;95.00;;;;;;10391766;28;20045;-81
2022/10/15 14:42:59;;;;;;;15.18;8.02;;;15.90;94.60;;;;;;10393724;28;20033;-79
2022/10/15 14:48:24;;;;;;;14.65;7.93;;;15.80;94.90;;;;;;10386122;28;20068;-79
2022/10/15 14:53:27;;;;;;;14.02;7.57;;;15.80;94.90;;;;;;10402014;28;20026;-79
2022/10/15 14:58:29;;;;;;;15.18;8.27;;;15.70;94.60;;;;;;10391005;28;20385;-78
2022/10/15 15:03:38;;;;;;;12.35;8.93;;;15.60;94.50;;;;;;10393144;28;20026;-78
2022/10/15 15:08:39;;;;;;;14.80;8.70;;;15.60;95.10;;;;;;10394911;28;20489;-78
2022/10/15 15:13:42;;;;;;;14.27;9.85;;;15.50;95.20;;;;;;10398548;28;20049;-78
2022/10/15 15:18:45;;;;;;;12.75;7.97;;;15.50;95.40;;;;;;10391629;28;20029;-78
2022/10/15 15:23:46;;;;;;;16.83;9.25;;;15.40;95.70;;;;;;10395055;28;20676;-79
2022/10/15 15:28:47;;;;;;;14.65;9.50;;;15.50;95.70;;;;;;10406659;28;20029;-81
2022/10/15 15:33:47;;;;;;;17.70;12.73;;;15.30;95.90;;;;;;10392032;28;20038;-80
2022/10/15 15:38:48;;;;;;;15.48;9.23;;;15.20;96.10;;;;;;10406787;28;20030;-79
2022/10/15 15:43:50;;;;;;;16.83;9.20;;;15.10;96.60;;;;;;10409391;28;20535;-80
2022/10/15 15:48:51;;;;;;;15.43;9.65;;;15.10;97.20;;;;;;10409694;28;20396;-78
2022/10/15 15:53:51;;;;;;;13.25;9.07;;;15.00;97.50;;;;;;10409920;28;20037;-78
2022/10/15 15:58:52;;;;;;;17.77;9.60;;;14.90;97.80;;;;;;10395188;28;20397;-81
2022/10/15 16:03:53;;;;;;;18.88;12.57;;;14.80;97.90;;;;;;10407096;28;20871;-78
2022/10/15 16:08:53;;;;;;;44.45;27.58;;;14.60;98.30;;;;;;10397545;28;20041;-79
2022/10/15 16:13:54;;;;;;;50.00;32.78;;;14.50;98.70;;;;;;10400609;28;20033;-79
2022/10/15 16:18:54;;;;;;;21.88;15.88;;;14.40;99.60;;;;;;10393288;28;20025;-78
2022/10/15 16:23:55;;;;;;;25.35;15.98;;;14.20;99.90;;;;;;10405827;28;20031;-81
2022/10/15 16:28:55;;;;;;;25.67;16.10;;;14.10;99.90;;;;;;10391617;28;20469;-78
2022/10/15 16:33:57;;;;;;;25.23;13.90;;;14.10;99.90;;;;;;10397089;28;20038;-78
2022/10/15 16:38:57;;;;;;;25.38;16.15;;;14.00;99.90;;;;;;10406694;28;20588;-80
2022/10/15 16:43:58;;;;;;;25.92;14.80;;;14.00;99.90;;;;;;10400993;28;20046;-78
2022/10/15 16:48:59;;;;;;;22.55;13.98;;;14.00;99.90;;;;;;10405933;28;20045;-79
2022/10/15 16:54:00;;;;;;;27.52;14.30;;;13.90;99.90;;;;;;10407218;28;20069;-81
2022/10/15 16:59:00;;;;;;;32.38;16.67;;;13.80;99.90;;;;;;10402641;28;20029;-78
2022/10/15 17:04:01;;;;;;;27.27;15.23;;;13.80;99.90;;;;;;10406031;28;20033;-78
2022/10/15 17:09:02;;;;;;;22.23;12.90;;;13.80;99.90;;;;;;10406410;28;20103;-78
2022/10/15 17:14:06;;;;;;;22.42;12.00;;;13.80;99.90;;;;;;10388560;28;20493;-78
2022/10/15 17:19:07;;;;;;;27.55;18.20;;;13.90;99.90;;;;;;10398102;28;20057;-81
2022/10/15 17:24:10;;;;;;;22.95;15.55;;;14.00;99.90;;;;;;10395455;28;20499;-79
2022/10/15 17:29:18;;;;;;;19.05;11.48;;;14.10;99.90;;;;;;10402864;28;20041;-82
2022/10/15 17:34:20;;;;;;;17.17;10.60;;;14.20;99.90;;;;;;10391784;28;20021;-81
2022/10/15 17:39:23;;;;;;;17.60;10.15;;;14.20;99.90;;;;;;10394654;28;20472;-80
2022/10/15 17:44:24;;;;;;;17.95;11.15;;;14.20;99.90;;;;;;10395822;28;20030;-79
2022/10/15 17:49:24;;;;;;;16.20;10.68;;;14.20;99.90;;;;;;10385907;28;20041;-81
2022/10/15 17:54:25;;;;;;;18.00;9.85;;;14.10;99.90;;;;;;10390540;28;20044;-78
2022/10/15 17:59:26;;;;;;;19.27;10.70;;;14.10;99.90;;;;;;10393490;28;20029;-78
2022/10/15 18:04:29;;;;;;;17.80;11.32;;;14.00;99.90;;;;;;10398693;28;20045;-79
2022/10/15 18:09:30;;;;;;;19.08;11.25;;;14.00;99.90;;;;;;10394953;28;20046;-83
2022/10/15 18:14:30;;;;;;;19.98;11.18;;;13.90;99.90;;;;;;10402410;28;20033;-79
2022/10/15 18:19:31;;;;;;;19.63;11.93;;;13.90;99.90;;;;;;10397653;28;20049;-79
2022/10/15 18:24:32;;;;;;;21.98;14.85;;;13.80;99.90;;;;;;10392348;28;20034;-81
2022/10/15 18:29:34;;;;;;;22.92;14.15;;;13.80;99.90;;;;;;10383467;28;20037;-79
2022/10/15 18:34:35;;;;;;;23.85;13.98;;;13.80;99.90;;;;;;10395884;28;20493;-78
2022/10/15 18:39:35;;;;;;;29.10;14.90;;;13.80;99.90;;;;;;10375308;28;20041;-78
2022/10/15 18:44:36;;;;;;;27.42;16.25;;;13.80;99.90;;;;;;10388138;28;20034;-78
2022/10/15 18:49:37;;;;;;;30.58;16.48;;;13.70;99.90;;;;;;10387978;28;20115;-80
2022/10/15 18:54:38;;;;;;;38.35;19.95;;;13.60;99.90;;;;;;10397230;28;20030;-79
2022/10/15 18:59:38;;;;;;;41.60;23.77;;;13.50;99.90;;;;;;10393688;28;20645;-80
2022/10/15 19:04:39;;;;;;;42.38;23.92;;;13.50;99.90;;;;;;10390090;28;20042;-80
2022/10/15 19:09:40;;;;;;;44.78;24.38;;;13.40;99.90;;;;;;10398577;28;20500;-82
2022/10/15 19:14:43;;;;;;;40.25;24.88;;;13.40;99.90;;;;;;10394581;28;20095;-82
2022/10/15 19:19:48;;;;;;;45.45;26.30;;;13.50;99.90;;;;;;10400639;28;20037;-79
2022/10/15 19:24:49;;;;;;;42.92;26.50;;;13.50;99.90;;;;;;10389864;28;20037;-79
2022/10/15 19:29:49;;;;;;;38.50;24.27;;;13.40;99.90;;;;;;10407162;28;20094;-78
2022/10/15 19:34:50;;;;;;;45.53;27.42;;;13.30;99.90;;;;;;10387856;28;20420;-79
2022/10/15 19:39:51;;;;;;;41.42;25.63;;;13.10;99.90;;;;;;10408163;28;20040;-78
2022/10/15 19:44:51;;;;;;;34.92;21.38;;;13.10;99.90;;;;;;10400782;28;20102;-79
2022/10/15 19:49:53;;;;;;;40.15;25.67;;;13.10;99.90;;;;;;10396953;28;20041;-79
2022/10/15 19:54:54;;;;;;;37.25;22.60;;;13.10;99.90;;;;;;10398451;28;20495;-79
2022/10/15 19:59:54;;;;;;;38.88;24.13;;;13.10;99.90;;;;;;10401875;28;20116;-79
2022/10/15 20:04:55;;;;;;;51.65;31.10;;;13.20;99.90;;;;;;10398599;28;20045;-78
2022/10/15 20:09:56;;;;;;;44.80;28.17;;;13.20;99.90;;;;;;10396757;28;20041;-79
2022/10/15 20:14:57;;;;;;;42.58;26.65;;;13.20;99.90;;;;;;10407587;28;20086;-80
2022/10/15 20:19:57;;;;;;;38.17;22.17;;;13.20;99.90;;;;;;10404820;28;20030;-78
2022/10/15 20:24:58;;;;;;;40.20;22.50;;;13.20;99.90;;;;;;10398531;28;20037;-79
2022/10/15 20:29:58;;;;;;;39.20;23.55;;;13.20;99.90;;;;;;10385927;28;20045;-81
2022/10/15 20:34:59;;;;;;;40.05;24.60;;;13.20;99.90;;;;;;10404653;28;20561;-79
2022/10/15 20:39:59;;;;;;;37.15;23.63;;;13.20;99.90;;;;;;10406565;28;20049;-79
2022/10/15 20:45:00;;;;;;;51.08;31.05;;;13.20;99.90;;;;;;10405889;28;20033;-78
2022/10/15 20:50:03;;;;;;;47.63;29.77;;;13.20;99.90;;;;;;10403737;28;20036;-80
2022/10/15 20:55:04;;;;;;;53.33;30.02;;;13.10;99.90;;;;;;10407363;28;20021;-81
2022/10/15 21:00:07;;;;;;;48.00;29.75;;;13.00;99.90;;;;;;10394577;28;20029;-80
2022/10/15 21:05:08;;;;;;;42.63;26.67;;;13.00;99.90;;;;;;10406453;28;20103;-79
2022/10/15 21:10:09;;;;;;;47.88;28.10;;;13.00;99.90;;;;;;10385344;28;20042;-79
2022/10/15 21:15:09;;;;;;;45.65;26.88;;;13.00;99.90;;;;;;10392798;28;20063;-79
2022/10/15 21:20:10;;;;;;;43.80;26.15;;;12.90;99.90;;;;;;10391247;28;20120;-78
2022/10/15 21:25:10;;;;;;;42.90;26.40;;;13.00;99.90;;;;;;10399373;28;20037;-78
2022/10/15 21:30:11;;;;;;;39.40;24.15;;;12.90;99.90;;;;;;10405510;28;20792;-81
2022/10/15 21:35:11;;;;;;;50.63;28.90;;;12.90;99.90;;;;;;10399736;28;20049;-78
2022/10/15 21:40:12;;;;;;;43.55;26.48;;;12.90;99.90;;;;;;10392983;28;20034;-82
2022/10/15 21:45:13;;;;;;;48.85;29.92;;;12.80;99.90;;;;;;10392770;28;20389;-79
2022/10/15 21:50:13;;;;;;;36.97;21.48;;;12.80;99.90;;;;;;10393190;28;20562;-79
2022/10/15 21:55:14;;;;;;;38.17;23.48;;;12.90;99.90;;;;;;10392091;28;20056;-78
2022/10/15 22:00:16;;;;;;;44.75;27.27;;;13.00;99.90;;;;;;10403789;28;20044;-81
2022/10/15 22:05:17;;;;;;;41.63;24.42;;;13.10;99.90;;;;;;10403499;28;20383;-78
2022/10/15 22:10:17;;;;;;;38.55;22.05;;;13.10;99.90;;;;;;10404764;28;20045;-78
2022/10/15 22:15:18;;;;;;;38.50;22.98;;;13.20;99.90;;;;;;10395583;28;20028;-78
2022/10/15 22:20:18;;;;;;;38.83;23.33;;;13.20;99.90;;;;;;10394461;28;20150;-79
2022/10/15 22:25:19;;;;;;;40.40;25.40;;;13.20;99.90;;;;;;10404659;28;20505;-81
2022/10/15 22:30:19;;;;;;;41.50;25.85;;;13.30;99.90;;;;;;10402507;28;20091;-78
2022/10/15 22:35:20;;;;;;;43.17;25.92;;;13.30;99.90;;;;;;10411629;28;20051;-79
2022/10/15 22:40:21;;;;;;;42.45;26.00;;;13.40;99.90;;;;;;10412891;28;20033;-78
2022/10/15 22:45:22;;;;;;;39.35;24.73;;;13.40;99.90;;;;;;10384402;28;20072;-79
2022/10/15 22:50:22;;;;;;;38.60;23.38;;;13.40;99.90;;;;;;10400384;28;20037;-78
2022/10/15 22:55:23;;;;;;;33.47;20.58;;;13.40;99.90;;;;;;10397613;28;20626;-78
2022/10/15 23:00:23;;;;;;;36.08;21.25;;;13.40;99.90;;;;;;10410159;28;20037;-81
2022/10/15 23:05:24;;;;;;;33.08;18.67;;;13.40;99.90;;;;;;10411106;28;20083;-78
2022/10/15 23:10:25;;;;;;;29.75;17.58;;;13.40;99.90;;;;;;10394752;28;20047;-80
2022/10/15 23:15:25;;;;;;;29.02;17.80;;;13.30;99.90;;;;;;10397399;28;20485;-78
2022/10/15 23:20:26;;;;;;;26.98;18.13;;;13.30;99.90;;;;;;10410551;28;20565;-78
2022/10/15 23:25:26;;;;;;;30.58;18.52;;;13.20;99.90;;;;;;10398334;28;20034;-81
2022/10/15 23:30:27;;;;;;;31.10;17.67;;;13.20;99.90;;;;;;10409060;28;20046;-79
2022/10/15 23:35:27;;;;;;;28.23;16.83;;;13.10;99.90;;;;;;10408143;28;20045;-78
2022/10/15 23:40:29;;;;;;;28.75;17.88;;;13.10;99.90;;;;;;10406814;28;20091;-78
2022/10/15 23:45:29;;;;;;;25.85;17.02;;;13.10;99.90;;;;;;10387774;28;20034;-78
2022/10/15 23:50:34;;;;;;;30.80;16.92;;;13.10;99.90;;;;;;10405420;28;20037;-78
2022/10/15 23:55:39;;;;;;;26.88;16.25;;;13.20;99.90;;;;;;10410517;28;20812;-78
